createdAt,value
2023-04-17T00:01:57.597Z,65.66
2023-04-17T00:04:59.295Z,65.75
2023-04-17T00:08:01.743Z,65.80
2023-04-17T00:11:07.926Z,65.82
2023-04-17T00:14:10.386Z,65.84
2023-04-17T00:17:12.270Z,65.79
2023-04-17T00:20:14.244Z,65.81
2023-04-17T00:23:15.909Z,65.87
2023-04-17T00:26:18.948Z,65.89
2023-04-17T00:29:21.023Z,65.97
2023-04-17T00:32:22.784Z,66.03
2023-04-17T00:35:24.532Z,66.03
2023-04-17T00:38:26.205Z,66.04
2023-04-17T00:41:27.969Z,66.14
2023-04-17T00:44:29.671Z,65.94
2023-04-17T00:47:32.438Z,65.83
2023-04-17T00:50:35.312Z,65.77
2023-04-17T00:53:37.349Z,65.75
2023-04-17T00:56:39.150Z,65.59
2023-04-17T00:59:41.257Z,65.48
2023-04-17T01:02:44.256Z,65.36
2023-04-17T01:05:49.574Z,65.35
2023-04-17T01:08:51.754Z,65.34
2023-04-17T01:11:53.509Z,65.28
2023-04-17T01:14:56.665Z,65.28
2023-04-17T01:17:58.746Z,65.34
2023-04-17T01:21:02.655Z,65.23
2023-04-17T01:24:04.988Z,65.20
2023-04-17T01:27:07.183Z,65.17
2023-04-17T01:30:10.416Z,65.14
2023-04-17T01:33:18.725Z,65.08
2023-04-17T01:36:20.884Z,65.07
2023-04-17T01:39:22.980Z,65.07
2023-04-17T01:42:25.064Z,65.10
2023-04-17T01:45:26.808Z,65.15
2023-04-17T01:48:28.511Z,65.15
2023-04-17T01:51:30.623Z,65.26
2023-04-17T01:54:32.903Z,65.25
2023-04-17T01:57:34.678Z,65.33
2023-04-17T02:00:36.405Z,65.33
2023-04-17T02:03:38.345Z,65.43
2023-04-17T02:06:40.123Z,65.42
2023-04-17T02:09:41.807Z,65.41
2023-04-17T02:12:43.473Z,65.42
2023-04-17T02:15:45.488Z,65.44
2023-04-17T02:18:49.479Z,65.46
2023-04-17T02:21:51.131Z,65.43
2023-04-17T02:24:52.778Z,65.46
2023-04-17T02:27:55.658Z,65.51
2023-04-17T02:30:57.427Z,65.58
2023-04-17T02:33:59.152Z,65.61
2023-04-17T02:37:01.669Z,65.72
2023-04-17T02:40:06.824Z,65.83
2023-04-17T02:43:08.590Z,65.68
2023-04-17T02:46:10.735Z,65.61
2023-04-17T02:49:12.717Z,65.66
2023-04-17T02:52:14.892Z,65.63
2023-04-17T02:55:16.847Z,65.61
2023-04-17T02:58:18.739Z,65.70
2023-04-17T03:01:21.940Z,65.76
2023-04-17T03:04:24.022Z,65.67
2023-04-17T03:07:26.955Z,65.67
2023-04-17T03:10:28.840Z,65.69
2023-04-17T03:13:32.786Z,65.62
2023-04-17T03:16:34.462Z,65.57
2023-04-17T03:19:39.793Z,65.69
2023-04-17T03:22:41.463Z,65.68
2023-04-17T03:25:43.324Z,65.70
2023-04-17T03:28:45.269Z,65.60
2023-04-17T03:31:46.981Z,65.59
2023-04-17T03:34:48.940Z,65.72
2023-04-17T03:37:50.841Z,65.86
2023-04-17T03:40:52.610Z,66.07
2023-04-17T03:43:54.839Z,66.27
2023-04-17T03:46:56.496Z,66.22
2023-04-17T03:49:58.266Z,66.64
2023-04-17T03:53:00.381Z,66.94
2023-04-17T03:56:03.102Z,66.74
2023-04-17T03:59:08.286Z,67.26
2023-04-17T04:02:14.185Z,67.64
2023-04-17T04:05:16.224Z,68.01
2023-04-17T04:08:18.172Z,68.37
2023-04-17T04:11:22.824Z,68.71
2023-04-17T04:14:24.747Z,69.03
2023-04-17T04:17:27.070Z,68.64
2023-04-17T04:20:30.109Z,69.33
2023-04-17T04:23:42.232Z,69.68
2023-04-17T04:26:49.056Z,69.94
2023-04-17T04:29:51.466Z,70.15
2023-04-17T04:32:55.489Z,70.45
2023-04-17T04:36:00.756Z,70.64
2023-04-17T04:39:06.182Z,70.79
2023-04-17T04:42:10.605Z,70.94
2023-04-17T04:45:30.869Z,71.05
2023-04-17T04:48:33.528Z,71.12
2023-04-17T04:51:35.511Z,71.29
2023-04-17T04:54:39.195Z,71.32
2023-04-17T04:57:41.024Z,71.44
2023-04-17T05:00:43.086Z,71.46
2023-04-17T05:03:47.868Z,71.55
2023-04-17T05:06:56.477Z,71.64
2023-04-17T05:09:58.305Z,71.71
2023-04-17T05:13:00.665Z,71.76
2023-04-17T05:16:02.570Z,71.82
2023-04-17T05:19:04.674Z,71.93
2023-04-17T05:22:19.608Z,71.98
2023-04-17T05:25:33.394Z,72.08
2023-04-17T05:28:35.538Z,72.14
2023-04-17T05:31:38.146Z,71.76
2023-04-17T05:34:43.014Z,71.93
2023-04-17T05:37:45.153Z,72.13
2023-04-17T05:40:46.897Z,72.32
2023-04-17T05:43:48.602Z,72.40
2023-04-17T05:46:50.339Z,72.47
2023-04-17T05:49:56.773Z,72.53
2023-04-17T05:52:58.770Z,72.63
2023-04-17T05:56:02.820Z,72.77
2023-04-17T05:59:05.644Z,72.86
2023-04-17T06:02:08.792Z,73.06
2023-04-17T06:05:10.965Z,73.14
2023-04-17T06:08:12.906Z,73.17
2023-04-17T06:11:15.183Z,73.20
2023-04-17T06:14:17.943Z,73.15
2023-04-17T06:17:19.665Z,73.10
2023-04-17T06:20:22.850Z,72.83
2023-04-17T06:23:24.676Z,73.07
2023-04-17T06:26:26.489Z,73.14
2023-04-17T06:29:28.224Z,73.36
2023-04-17T06:32:30.193Z,73.47
2023-04-17T06:35:32.361Z,73.62
2023-04-17T06:38:41.867Z,73.66
2023-04-17T06:41:43.796Z,73.81
2023-04-17T06:44:46.724Z,73.89
2023-04-17T06:47:48.465Z,73.81
2023-04-17T06:50:53.132Z,73.90
2023-04-17T06:53:55.543Z,73.66
2023-04-17T06:56:57.330Z,73.57
2023-04-17T06:59:59.200Z,73.72
2023-04-17T07:03:01.824Z,73.73
2023-04-17T07:06:03.746Z,73.60
2023-04-17T07:09:05.578Z,73.61
2023-04-17T07:12:07.280Z,73.47
2023-04-17T07:15:09.399Z,73.48
2023-04-17T07:18:11.210Z,73.40
2023-04-17T07:21:12.999Z,73.20
2023-04-17T07:24:15.094Z,73.26
2023-04-17T07:27:17.410Z,73.22
2023-04-17T07:30:19.083Z,73.19
2023-04-17T07:33:21.191Z,73.12
2023-04-17T07:36:23.524Z,73.16
2023-04-17T07:39:27.932Z,73.25
2023-04-17T07:42:29.716Z,73.16
2023-04-17T07:45:32.864Z,73.27
2023-04-17T07:48:34.747Z,73.20
2023-04-17T07:51:37.734Z,76.06
2023-04-17T07:54:39.513Z,75.68
2023-04-17T07:57:42.026Z,74.78
2023-04-17T08:00:44.000Z,74.58
2023-04-17T08:03:48.397Z,74.15
2023-04-17T08:06:50.603Z,73.94
2023-04-17T08:09:52.447Z,74.04
2023-04-17T08:12:55.925Z,73.92
2023-04-17T08:15:58.960Z,73.83
2023-04-17T08:19:01.990Z,73.53
2023-04-17T08:22:05.595Z,73.15
2023-04-17T08:25:08.871Z,73.05
2023-04-17T08:28:10.645Z,73.23
2023-04-17T08:31:13.293Z,73.17
2023-04-17T08:34:16.502Z,72.70
2023-04-17T08:37:22.058Z,72.63
2023-04-17T08:40:25.624Z,72.10
2023-04-17T08:43:28.877Z,71.80
2023-04-17T08:46:31.630Z,71.58
2023-04-17T08:49:35.078Z,71.27
2023-04-17T08:52:44.996Z,71.06
2023-04-17T08:55:48.830Z,70.98
2023-04-17T08:58:50.585Z,71.20
2023-04-17T09:02:07.267Z,71.05
2023-04-17T09:05:20.492Z,70.98
2023-04-17T09:08:25.167Z,71.39
2023-04-17T09:11:27.538Z,71.45
2023-04-17T09:14:30.039Z,71.51
2023-04-17T09:17:34.025Z,71.20
2023-04-17T09:20:49.003Z,70.83
2023-04-17T09:23:55.975Z,70.23
2023-04-17T09:27:21.582Z,69.61
2023-04-17T09:30:26.362Z,68.49
2023-04-17T09:33:28.151Z,67.61
2023-04-17T09:36:32.491Z,67.72
2023-04-17T09:39:34.329Z,67.63
2023-04-17T09:42:59.251Z,67.26
2023-04-17T09:46:02.771Z,66.94
2023-04-17T09:49:07.522Z,67.08
2023-04-17T09:52:09.528Z,66.85
2023-04-17T09:55:12.377Z,66.16
2023-04-17T09:58:15.859Z,65.44
2023-04-17T10:01:19.359Z,65.14
2023-04-17T10:04:22.842Z,64.61
2023-04-17T10:07:25.388Z,64.37
2023-04-17T10:10:32.964Z,63.99
2023-04-17T10:13:41.990Z,63.95
2023-04-17T10:16:44.037Z,63.74
2023-04-17T10:19:48.410Z,63.37
2023-04-17T10:22:55.428Z,63.43
2023-04-17T10:26:26.570Z,63.58
2023-04-17T10:29:57.029Z,64.24
2023-04-17T10:33:19.425Z,63.74
2023-04-17T10:36:41.626Z,63.39
2023-04-17T10:40:10.058Z,63.65
2023-04-17T10:43:22.143Z,63.44
2023-04-17T10:46:25.748Z,63.29
2023-04-17T10:49:27.716Z,63.31
2023-04-17T10:52:41.859Z,63.71
2023-04-17T10:55:50.587Z,63.89
2023-04-17T10:59:04.846Z,64.11
2023-04-17T11:02:07.614Z,63.99
2023-04-17T11:05:10.552Z,64.08
2023-04-17T11:08:12.620Z,64.04
2023-04-17T11:11:16.811Z,63.77
2023-04-17T11:14:22.835Z,63.98
2023-04-17T11:17:25.267Z,63.82
2023-04-17T11:20:31.762Z,63.87
2023-04-17T11:23:33.930Z,63.51
2023-04-17T11:26:43.332Z,63.37
2023-04-17T11:29:45.450Z,63.42
2023-04-17T11:32:47.379Z,63.72
2023-04-17T11:35:49.180Z,63.82
2023-04-17T11:38:53.871Z,64.13
2023-04-17T11:41:57.484Z,64.37
2023-04-17T11:45:04.613Z,64.52
2023-04-17T11:48:09.031Z,64.68
2023-04-17T11:51:12.876Z,64.88
2023-04-17T11:54:34.129Z,64.86
2023-04-17T11:57:44.997Z,64.85
2023-04-17T12:01:03.807Z,65.00
2023-04-17T12:04:20.171Z,65.00
2023-04-17T12:07:25.896Z,65.08
2023-04-17T12:10:37.807Z,65.04
2023-04-17T12:13:39.597Z,65.09
2023-04-17T12:16:41.488Z,65.29
2023-04-17T12:19:44.652Z,65.25
2023-04-17T12:22:46.474Z,65.54
2023-04-17T12:25:48.259Z,65.96
2023-04-17T12:28:50.677Z,66.37
2023-04-17T12:31:52.529Z,66.62
2023-04-17T12:34:55.545Z,67.00
2023-04-17T12:37:57.324Z,67.46
2023-04-17T12:40:59.425Z,67.65
2023-04-17T12:44:02.949Z,68.19
2023-04-17T12:47:05.292Z,68.27
2023-04-17T12:50:07.352Z,68.44
2023-04-17T12:53:10.878Z,68.28
2023-04-17T12:56:12.640Z,68.48
2023-04-17T12:59:14.365Z,68.47
2023-04-17T13:02:17.973Z,68.89
2023-04-17T13:05:19.800Z,68.92
2023-04-17T13:08:21.648Z,68.77
2023-04-17T13:11:23.483Z,68.91
2023-04-17T13:14:25.302Z,69.05
2023-04-17T13:17:27.319Z,69.31
2023-04-17T13:20:29.495Z,69.47
2023-04-17T13:23:31.362Z,69.41
2023-04-17T13:26:33.191Z,69.43
2023-04-17T13:29:35.432Z,69.23
2023-04-17T13:32:38.877Z,68.94
2023-04-17T13:35:40.823Z,68.83
2023-04-17T13:38:42.587Z,68.76
2023-04-17T13:41:45.105Z,68.72
2023-04-17T13:44:46.969Z,68.75
2023-04-17T13:47:48.811Z,68.85
2023-04-17T13:50:50.609Z,68.70
2023-04-17T13:53:52.792Z,68.36
2023-04-17T13:56:54.603Z,67.74
2023-04-17T13:59:56.253Z,67.32
2023-04-17T14:02:59.516Z,67.16
2023-04-17T14:06:01.579Z,67.15
2023-04-17T14:09:03.460Z,67.68
2023-04-17T14:12:05.607Z,67.86
2023-04-17T14:15:07.700Z,68.09
2023-04-17T14:18:09.726Z,68.18
2023-04-17T14:21:11.764Z,68.50
2023-04-17T14:24:13.501Z,68.93
2023-04-17T14:27:15.887Z,69.38
2023-04-17T14:30:17.950Z,69.67
2023-04-17T14:33:35.222Z,69.73
2023-04-17T14:36:52.179Z,69.64
2023-04-17T14:40:09.165Z,69.60
2023-04-17T14:43:11.132Z,69.77
2023-04-17T14:46:12.966Z,70.07
2023-04-17T14:49:15.203Z,70.27
2023-04-17T14:52:16.718Z,70.42
2023-04-17T14:55:18.538Z,70.34
2023-04-17T14:58:20.138Z,70.68
2023-04-17T15:01:21.786Z,71.02
2023-04-17T15:04:23.515Z,71.22
2023-04-17T15:07:25.266Z,71.19
2023-04-17T15:10:28.689Z,71.20
2023-04-17T15:13:31.963Z,70.99
2023-04-17T15:16:33.667Z,70.71
2023-04-17T15:19:35.303Z,70.81
2023-04-17T15:22:36.907Z,70.93
2023-04-17T15:25:38.572Z,71.25
2023-04-17T15:28:40.519Z,71.66
2023-04-17T15:31:42.252Z,71.75
2023-04-17T15:34:48.057Z,71.65
2023-04-17T15:37:49.728Z,71.52
2023-04-17T15:40:51.518Z,71.64
2023-04-17T15:43:53.118Z,71.76
2023-04-17T15:46:54.848Z,73.89
2023-04-17T15:49:56.502Z,73.19
2023-04-17T15:52:58.092Z,72.80
2023-04-17T15:56:00.013Z,72.63
2023-04-17T15:59:01.934Z,72.57
2023-04-17T16:02:03.777Z,72.60
2023-04-17T16:05:05.895Z,72.65
2023-04-17T16:08:07.514Z,72.65
2023-04-17T16:11:10.314Z,72.78
2023-04-17T16:14:11.892Z,72.87
2023-04-17T16:17:13.530Z,72.75
2023-04-17T16:20:15.388Z,72.76
2023-04-17T16:23:17.409Z,72.69
2023-04-17T16:26:19.021Z,72.70
2023-04-17T16:29:21.089Z,72.85
2023-04-17T16:32:24.326Z,73.04
2023-04-17T16:35:26.191Z,73.08
2023-04-17T16:38:27.762Z,73.13
2023-04-17T16:41:30.928Z,73.19
2023-04-17T16:44:32.898Z,73.28
2023-04-17T16:47:34.738Z,73.42
2023-04-17T16:50:36.833Z,73.51
2023-04-17T16:53:40.599Z,73.61
2023-04-17T16:56:59.559Z,73.71
2023-04-17T17:00:03.329Z,73.77
2023-04-17T17:03:05.855Z,73.79
2023-04-17T17:06:10.730Z,73.88
2023-04-17T17:09:12.546Z,73.99
2023-04-17T17:12:14.368Z,74.08
2023-04-17T17:15:16.395Z,74.18
2023-04-17T17:18:17.976Z,74.20
2023-04-17T17:21:20.296Z,74.28
2023-04-17T17:24:22.335Z,74.34
2023-04-17T17:27:24.404Z,74.26
2023-04-17T17:30:26.610Z,74.29
2023-04-17T17:33:29.556Z,74.12
2023-04-17T17:36:32.768Z,73.95
2023-04-17T17:39:35.023Z,73.84
2023-04-17T17:42:36.748Z,73.64
2023-04-17T17:45:38.865Z,73.42
2023-04-17T17:48:41.583Z,73.25
2023-04-17T17:51:43.809Z,73.13
2023-04-17T17:54:45.304Z,73.12
2023-04-17T17:57:49.472Z,73.08
2023-04-17T18:00:51.510Z,73.00
2023-04-17T18:03:53.688Z,73.01
2023-04-17T18:06:55.736Z,72.98
2023-04-17T18:09:57.342Z,73.06
2023-04-17T18:12:58.936Z,73.07
2023-04-17T18:16:03.453Z,73.10
2023-04-17T18:19:06.074Z,73.13
2023-04-17T18:22:08.428Z,73.23
2023-04-17T18:25:10.567Z,73.37
2023-04-17T18:28:12.199Z,73.51
2023-04-17T18:31:14.965Z,73.64
2023-04-17T18:34:18.180Z,73.71
2023-04-17T18:37:19.785Z,73.79
2023-04-17T18:40:21.329Z,73.84
2023-04-17T18:43:22.952Z,73.86
2023-04-17T18:46:26.339Z,73.88
2023-04-17T18:49:28.126Z,73.99
2023-04-17T18:52:29.716Z,73.98
2023-04-17T18:55:31.821Z,73.97
2023-04-17T18:58:33.396Z,73.98
2023-04-17T19:01:35.040Z,74.06
2023-04-17T19:04:36.603Z,74.28
2023-04-17T19:07:38.238Z,74.40
2023-04-17T19:10:40.271Z,74.50
2023-04-17T19:13:44.333Z,74.59
2023-04-17T19:16:47.317Z,74.60
2023-04-17T19:19:49.068Z,74.65
2023-04-17T19:22:50.646Z,74.70
2023-04-17T19:25:55.881Z,74.80
2023-04-17T19:28:58.353Z,74.89
2023-04-17T19:31:59.978Z,74.99
2023-04-17T19:35:01.818Z,74.99
2023-04-17T19:38:03.581Z,74.95
2023-04-17T19:41:17.218Z,75.02
2023-04-17T19:44:18.873Z,75.13
2023-04-17T19:47:20.473Z,75.15
2023-04-17T19:50:24.626Z,75.14
2023-04-17T19:53:36.365Z,75.24
2023-04-17T19:56:38.694Z,75.23
2023-04-17T19:59:40.412Z,75.25
2023-04-17T20:02:42.256Z,75.09
2023-04-17T20:05:44.097Z,75.21
2023-04-17T20:08:45.786Z,75.25
2023-04-17T20:11:47.501Z,75.34
2023-04-17T20:14:51.550Z,75.41
2023-04-17T20:17:56.489Z,75.49
2023-04-17T20:21:00.508Z,75.48
2023-04-17T20:24:02.170Z,75.61
2023-04-17T20:27:03.766Z,75.66
2023-04-17T20:30:06.144Z,75.68
2023-04-17T20:33:07.903Z,75.76
2023-04-17T20:36:11.583Z,75.79
2023-04-17T20:39:13.989Z,75.85
2023-04-17T20:42:15.821Z,75.93
2023-04-17T20:45:17.462Z,75.94
2023-04-17T20:48:19.075Z,75.97
2023-04-17T20:51:24.393Z,76.00
2023-04-17T20:54:26.022Z,76.03
2023-04-17T20:57:28.190Z,76.05
2023-04-17T21:00:29.871Z,76.01
2023-04-17T21:03:32.368Z,75.91
2023-04-17T21:06:34.083Z,75.91
2023-04-17T21:09:35.630Z,75.97
2023-04-17T21:12:37.203Z,76.08
2023-04-17T21:15:38.863Z,76.08
2023-04-17T21:18:40.491Z,76.05
2023-04-17T21:21:42.145Z,76.12
2023-04-17T21:24:43.826Z,76.10
2023-04-17T21:27:45.398Z,76.16
2023-04-17T21:30:47.198Z,76.14
2023-04-17T21:33:48.991Z,76.18
2023-04-17T21:36:53.059Z,76.17
2023-04-17T21:39:54.747Z,76.18
2023-04-17T21:42:56.355Z,76.20
2023-04-17T21:45:58.203Z,76.18
2023-04-17T21:49:00.206Z,76.18
2023-04-17T21:52:01.812Z,76.16
2023-04-17T21:55:05.215Z,76.19
2023-04-17T21:58:06.882Z,76.24
2023-04-17T22:01:08.639Z,76.22
2023-04-17T22:04:10.288Z,76.26
2023-04-17T22:07:12.046Z,76.31
2023-04-17T22:10:13.916Z,76.31
2023-04-17T22:13:15.744Z,76.33
2023-04-17T22:16:17.475Z,76.31
2023-04-17T22:19:19.202Z,76.32
2023-04-17T22:22:21.307Z,76.24
2023-04-17T22:25:22.923Z,76.24
2023-04-17T22:28:25.108Z,76.20
2023-04-17T22:31:26.732Z,76.29
2023-04-17T22:34:28.350Z,76.30
2023-04-17T22:37:29.880Z,76.33
2023-04-17T22:40:31.513Z,76.36
2023-04-17T22:43:33.097Z,76.41
2023-04-17T22:46:34.977Z,76.40
2023-04-17T22:49:40.001Z,76.44
2023-04-17T22:52:41.615Z,76.51
2023-04-17T22:55:43.211Z,76.56
2023-04-17T22:58:44.802Z,76.54
2023-04-17T23:01:46.376Z,76.52
2023-04-17T23:04:48.050Z,76.49
2023-04-17T23:07:49.926Z,76.46
2023-04-17T23:10:59.230Z,76.45
2023-04-17T23:14:01.279Z,76.52
2023-04-17T23:17:02.866Z,76.47
2023-04-17T23:20:04.930Z,76.46
2023-04-17T23:23:06.508Z,76.45
2023-04-17T23:26:08.139Z,76.45
2023-04-17T23:29:09.748Z,76.48
2023-04-17T23:32:11.440Z,76.49
2023-04-17T23:35:13.283Z,76.55
2023-04-17T23:38:15.250Z,76.61
2023-04-17T23:41:17.153Z,76.61
2023-04-17T23:44:18.791Z,76.58
2023-04-17T23:47:20.491Z,76.61
2023-04-17T23:50:22.111Z,76.62
2023-04-17T23:53:23.718Z,76.57
2023-04-17T23:56:25.399Z,76.55
2023-04-17T23:59:27.024Z,76.56
